Time;durP1;ratioP1;P1;durP2;ratioP2;P2;SDS_P1;SDS_P2;PMS_P1;PMS_P2;Temp;Humidity;BMP_temperature;BMP_pressure;BME280_temperature;BME280_humidity;BME280_pressure;Samples;Min_cycle;Max_cycle;Signal;HPM_P1;HPM_P2
2022/02/18 00:00:14;;;;;;;6.57;1.42;;;;;;;;;;6235827;28;20638;-75
2022/02/18 00:03:40;;;;;;;9.82;1.55;;;;;;;;;;6220449;28;20049;-76
2022/02/18 00:06:44;;;;;;;;;;;;;;;;;;6219629;28;20046;-76
2022/02/18 00:09:47;;;;;;;5.75;1.33;;;;;;;;;;6218752;28;20011;-75
2022/02/18 00:12:52;;;;;;;5.43;1.42;;;;;;;;;;6235630;28;20072;-75
2022/02/18 00:15:55;;;;;;;5.22;2.20;;;;;;;;;;6235408;28;20073;-75
2022/02/18 00:18:59;;;;;;;7.32;1.63;;;;;;;;;;6234943;28;20057;-75
2022/02/18 00:22:05;;;;;;;7.65;1.25;;;;;;;;;;6220101;28;20057;-75
2022/02/18 00:25:10;;;;;;;6.28;1.30;;;;;;;;;;6234863;28;20088;-75
2022/02/18 00:28:22;;;;;;;6.72;1.73;;;;;;;;;;6219898;28;20052;-75
2022/02/18 00:31:26;;;;;;;;;;;;;;;;;;6235299;28;20050;-75
2022/02/18 00:34:30;;;;;;;6.25;1.40;;;;;;;;;;6218396;28;19964;-76
2022/02/18 00:37:33;;;;;;;4.95;1.00;;;;;;;;;;6234759;28;20052;-75
2022/02/18 00:40:36;;;;;;;5.88;1.33;;;;;;;;;;6234461;28;20049;-75
2022/02/18 00:43:41;;;;;;;6.50;1.58;;;;;;;;;;6234875;28;20046;-75
2022/02/18 00:46:45;;;;;;;9.25;1.60;;;;;;;;;;6234043;28;20046;-75
2022/02/18 00:49:48;;;;;;;6.03;1.60;;;;;;;;;;6233862;28;20056;-75
2022/02/18 00:52:53;;;;;;;7.57;1.92;;;;;;;;;;6234503;28;20041;-74
2022/02/18 00:55:58;;;;;;;6.53;1.60;;;;;;;;;;6234406;28;20444;-75
2022/02/18 00:59:04;;;;;;;3.17;1.33;;;;;;;;;;6234600;28;20184;-75
2022/02/18 01:02:07;;;;;;;8.30;1.63;;;;;;;;;;6218873;28;20038;-75
2022/02/18 01:05:11;;;;;;;6.40;1.50;;;;;;;;;;6234396;28;20037;-75
2022/02/18 01:08:17;;;;;;;6.28;1.40;;;;;;;;;;6234029;28;20057;-75
2022/02/18 01:11:20;;;;;;;6.68;1.00;;;;;;;;;;6233898;28;20373;-75
2022/02/18 01:14:26;;;;;;;7.75;1.70;;;;;;;;;;6233944;28;20049;-76
2022/02/18 01:17:29;;;;;;;8.80;1.38;;;;;;;;;;6218664;28;20046;-76
2022/02/18 01:20:33;;;;;;;5.88;1.20;;;;;;;;;;6233637;28;20042;-75
2022/02/18 01:23:38;;;;;;;10.65;1.58;;;;;;;;;;6217325;28;20048;-75
2022/02/18 01:26:43;;;;;;;6.55;1.75;;;;;;;;;;6233687;28;20042;-76
2022/02/18 01:29:47;;;;;;;10.48;1.67;;;;;;;;;;6233636;28;20066;-75
2022/02/18 01:32:50;;;;;;;7.80;2.05;;;;;;;;;;6233101;28;20037;-75
2022/02/18 01:35:53;;;;;;;4.97;1.45;;;;;;;;;;6217722;28;20042;-76
2022/02/18 01:38:57;;;;;;;6.10;1.40;;;;;;;;;;6233223;28;20054;-76
2022/02/18 01:42:01;;;;;;;4.57;1.42;;;;;;;;;;6233086;28;20420;-76
2022/02/18 01:45:07;;;;;;;5.38;1.27;;;;;;;;;;6233073;28;20058;-75
2022/02/18 01:48:10;;;;;;;;;;;;;;;;;;6233991;28;20046;-75
2022/02/18 01:51:13;;;;;;;7.15;1.30;;;;;;;;;;6216593;28;19922;-74
2022/02/18 01:54:16;;;;;;;8.55;2.65;;;;;;;;;;6232991;28;20077;-75
2022/02/18 01:57:21;;;;;;;8.23;1.40;;;;;;;;;;6233491;28;20053;-75
2022/02/18 02:00:27;;;;;;;5.50;1.92;;;;;;;;;;6232207;28;20053;-76
2022/02/18 02:03:30;;;;;;;7.80;1.48;;;;;;;;;;6232361;28;20072;-75
2022/02/18 02:06:34;;;;;;;5.35;1.42;;;;;;;;;;6233222;28;20046;-75
2022/02/18 02:09:38;;;;;;;10.98;1.70;;;;;;;;;;6232668;28;20049;-75
2022/02/18 02:12:42;;;;;;;6.07;1.50;;;;;;;;;;6232542;28;20484;-75
2022/02/18 02:15:55;;;;;;;5.85;1.50;;;;;;;;;;6232212;28;20044;-76
2022/02/18 02:18:59;;;;;;;3.45;1.35;;;;;;;;;;6232796;28;20061;-75
2022/02/18 02:22:03;;;;;;;6.82;1.52;;;;;;;;;;6232265;28;20045;-75
2022/02/18 02:25:08;;;;;;;5.15;1.25;;;;;;;;;;6232027;28;20045;-76
2022/02/18 02:28:12;;;;;;;9.23;1.48;;;;;;;;;;6232381;28;20046;-77
2022/02/18 02:31:16;;;;;;;6.75;1.33;;;;;;;;;;6232054;28;20046;-75
2022/02/18 02:34:20;;;;;;;5.28;1.30;;;;;;;;;;6231986;28;20045;-76
2022/02/18 02:37:23;;;;;;;5.35;2.00;;;;;;;;;;6231962;28;20404;-75
2022/02/18 02:40:28;;;;;;;6.38;1.27;;;;;;;;;;6232196;28;20129;-76
2022/02/18 02:43:32;;;;;;;5.43;1.10;;;;;;;;;;6232035;28;20046;-76
2022/02/18 02:46:36;;;;;;;5.85;1.15;;;;;;;;;;6231612;28;20053;-76
2022/02/18 02:49:53;;;;;;;5.40;1.50;;;;;;;;;;6231889;28;20423;-76
2022/02/18 02:52:57;;;;;;;5.05;1.40;;;;;;;;;;6231786;28;20053;-75
2022/02/18 02:56:01;;;;;;;8.75;1.60;;;;;;;;;;6232020;28;20503;-75
2022/02/18 02:59:06;;;;;;;5.78;1.30;;;;;;;;;;6231718;28;20133;-76
2022/02/18 03:02:15;;;;;;;4.35;1.15;;;;;;;;;;6231906;28;20049;-75
2022/02/18 03:05:19;;;;;;;9.90;1.45;;;;;;;;;;6231620;28;20554;-75
2022/02/18 03:08:29;;;;;;;5.25;1.50;;;;;;;;;;6231342;28;20053;-75
2022/02/18 03:11:36;;;;;;;12.07;1.90;;;;;;;;;;6235234;28;20050;-75
2022/02/18 03:15:00;;;;;;;9.00;1.35;;;;;;;;;;6224516;28;20058;-76
2022/02/18 03:18:07;;;;;;;6.47;1.38;;;;;;;;;;6236541;28;20054;-75
2022/02/18 03:21:11;;;;;;;7.15;1.95;;;;;;;;;;6236301;28;20412;-76
2022/02/18 03:24:21;;;;;;;9.27;1.42;;;;;;;;;;6236638;28;20038;-76
2022/02/18 03:27:28;;;;;;;6.70;1.45;;;;;;;;;;6236495;28;20050;-77
2022/02/18 03:30:33;;;;;;;4.55;1.33;;;;;;;;;;6236092;28;20041;-77
2022/02/18 03:33:38;;;;;;;9.13;2.67;;;;;;;;;;6236240;28;20491;-76
2022/02/18 03:36:41;;;;;;;6.47;1.48;;;;;;;;;;6236257;28;20069;-77
2022/02/18 03:39:45;;;;;;;8.00;1.40;;;;;;;;;;6236122;28;20045;-76
2022/02/18 03:42:50;;;;;;;5.03;1.30;;;;;;;;;;6235684;28;20038;-77
2022/02/18 03:45:56;;;;;;;11.60;1.77;;;;;;;;;;6236298;28;20054;-77
2022/02/18 03:49:04;;;;;;;6.38;1.30;;;;;;;;;;6219542;28;20500;-76
2022/02/18 03:52:08;;;;;;;4.50;1.13;;;;;;;;;;6235278;28;20068;-76
2022/02/18 03:55:12;;;;;;;14.23;2.87;;;;;;;;;;6236739;28;20046;-77
2022/02/18 03:58:24;;;;;;;6.38;1.50;;;;;;;;;;6235839;28;20425;-75
2022/02/18 04:01:27;;;;;;;5.28;1.92;;;;;;;;;;6235549;28;20494;-77
2022/02/18 04:04:31;;;;;;;4.05;1.30;;;;;;;;;;6235291;28;20041;-75
2022/02/18 04:08:10;;;;;;;4.70;1.45;;;;;;;;;;6223334;28;20450;-75
2022/02/18 04:11:13;;;;;;;2.90;1.10;;;;;;;;;;6235566;28;20151;-75
2022/02/18 04:14:18;;;;;;;9.10;1.70;;;;;;;;;;6235177;28;20492;-74
2022/02/18 04:17:33;;;;;;;6.78;1.45;;;;;;;;;;6235033;28;20046;-75
2022/02/18 04:20:47;;;;;;;7.72;2.22;;;;;;;;;;6235525;28;20435;-75
2022/02/18 04:24:20;;;;;;;5.75;1.60;;;;;;;;;;6234732;28;20056;-75
2022/02/18 04:27:23;;;;;;;4.50;1.17;;;;;;;;;;6234976;28;20050;-75
2022/02/18 04:30:29;;;;;;;4.68;1.30;;;;;;;;;;6234852;28;20057;-76
2022/02/18 04:33:32;;;;;;;5.93;1.50;;;;;;;;;;6218809;28;20045;-75
2022/02/18 04:36:35;;;;;;;5.32;1.10;;;;;;;;;;6234996;28;20597;-75
2022/02/18 04:39:39;;;;;;;9.05;2.38;;;;;;;;;;6234697;28;20054;-76
2022/02/18 04:42:42;;;;;;;7.10;1.40;;;;;;;;;;6234965;28;20128;-76
2022/02/18 04:45:47;;;;;;;8.75;1.75;;;;;;;;;;6234449;28;20076;-75
2022/02/18 04:48:52;;;;;;;5.93;1.50;;;;;;;;;;6234313;28;20073;-74
2022/02/18 04:51:55;;;;;;;5.63;1.50;;;;;;;;;;6234101;28;20444;-74
2022/02/18 04:54:59;;;;;;;6.97;1.50;;;;;;;;;;6218154;28;20054;-74
2022/02/18 04:58:02;;;;;;;6.82;1.73;;;;;;;;;;6234185;28;20064;-75
2022/02/18 05:01:10;;;;;;;5.30;1.33;;;;;;;;;;6233901;28;20053;-74
2022/02/18 05:04:14;;;;;;;;;;;;;;;;;;6234932;28;20045;-74
2022/02/18 05:07:17;;;;;;;11.85;1.63;;;;;;;;;;6217436;28;20000;-77
2022/02/18 05:10:21;;;;;;;6.20;1.42;;;;;;;;;;6233629;28;20053;-75
2022/02/18 05:13:24;;;;;;;5.18;1.30;;;;;;;;;;6234045;28;20092;-75
2022/02/18 05:16:29;;;;;;;5.03;1.58;;;;;;;;;;6233666;28;20050;-75
2022/02/18 05:19:33;;;;;;;7.88;1.65;;;;;;;;;;6233937;28;20042;-75
2022/02/18 05:22:36;;;;;;;7.50;1.40;;;;;;;;;;6233352;28;20050;-78
2022/02/18 05:25:40;;;;;;;6.80;1.63;;;;;;;;;;6233936;28;20129;-77
2022/02/18 05:28:44;;;;;;;3.58;1.17;;;;;;;;;;6233237;28;20088;-75
2022/02/18 05:31:50;;;;;;;5.40;1.50;;;;;;;;;;6233668;28;20050;-76
2022/02/18 05:34:53;;;;;;;;;;;;;;;;;;6234196;28;20480;-75
2022/02/18 05:37:56;;;;;;;6.97;1.60;;;;;;;;;;6216727;28;20427;-75
2022/02/18 05:40:59;;;;;;;12.18;1.98;;;;;;;;;;6232945;28;20500;-75
2022/02/18 05:44:02;;;;;;;6.05;2.20;;;;;;;;;;6233431;28;20399;-76
2022/02/18 05:47:07;;;;;;;5.45;1.67;;;;;;;;;;6233163;28;20053;-75
2022/02/18 05:50:11;;;;;;;4.20;1.40;;;;;;;;;;6232653;28;20065;-75
2022/02/18 05:53:15;;;;;;;11.30;1.88;;;;;;;;;;6232664;28;20046;-75
2022/02/18 05:56:24;;;;;;;7.20;1.73;;;;;;;;;;6218480;28;20131;-75
2022/02/18 05:59:28;;;;;;;6.18;1.67;;;;;;;;;;6232146;28;20041;-75
2022/02/18 06:02:33;;;;;;;11.02;2.20;;;;;;;;;;6232301;28;20041;-76
2022/02/18 06:05:36;;;;;;;7.57;1.70;;;;;;;;;;6232590;28;20117;-75
2022/02/18 06:08:39;;;;;;;9.02;1.70;;;;;;;;;;6232570;28;20054;-75
2022/02/18 06:11:43;;;;;;;10.43;2.47;;;;;;;;;;6232404;28;20517;-75
2022/02/18 06:14:49;;;;;;;4.53;1.67;;;;;;;;;;6216252;28;20271;-76
2022/02/18 06:17:54;;;;;;;7.97;2.67;;;;;;;;;;6232656;28;20386;-76
2022/02/18 06:20:57;;;;;;;9.25;1.90;;;;;;;;;;6231435;28;20104;-75
2022/02/18 06:24:01;;;;;;;8.65;1.90;;;;;;;;;;6228852;28;20491;-75
2022/02/18 06:27:04;;;;;;;9.10;2.17;;;;;;;;;;6229634;28;20042;-75
2022/02/18 06:30:12;;;;;;;10.95;1.88;;;;;;;;;;6228972;28;20120;-76
2022/02/18 06:33:17;;;;;;;7.05;2.00;;;;;;;;;;6213622;28;20611;-76
2022/02/18 06:36:20;;;;;;;9.45;1.98;;;;;;;;;;6229623;28;20041;-76
2022/02/18 06:39:23;;;;;;;8.30;1.90;;;;;;;;;;6217021;28;20168;-76
2022/02/18 06:42:26;;;;;;;8.48;1.90;;;;;;;;;;6231846;28;20045;-75
2022/02/18 06:45:29;;;;;;;8.77;2.60;;;;;;;;;;6230910;28;20109;-76
2022/02/18 06:48:34;;;;;;;9.82;1.80;;;;;;;;;;6217141;28;20049;-76
2022/02/18 06:51:37;;;;;;;10.00;2.08;;;;;;;;;;6231828;28;20056;-77
2022/02/18 06:54:43;;;;;;;10.25;2.40;;;;;;;;;;6215154;28;20056;-76
2022/02/18 06:57:47;;;;;;;8.25;1.92;;;;;;;;;;6231640;28;20212;-75
2022/02/18 07:00:51;;;;;;;7.20;1.98;;;;;;;;;;6215425;28;20064;-76
2022/02/18 07:03:56;;;;;;;7.05;2.30;;;;;;;;;;6231342;28;20042;-75
2022/02/18 07:07:02;;;;;;;10.38;1.73;;;;;;;;;;6231287;28;20095;-76
2022/02/18 07:10:06;;;;;;;17.63;2.65;;;;;;;;;;6231375;28;20050;-76
2022/02/18 07:13:09;;;;;;;8.68;2.85;;;;;;;;;;6231216;28;20050;-76
2022/02/18 07:16:13;;;;;;;7.63;1.88;;;;;;;;;;6230883;28;20072;-75
2022/02/18 07:19:17;;;;;;;6.85;1.73;;;;;;;;;;6231740;28;20053;-75
2022/02/18 07:22:21;;;;;;;3.03;1.38;;;;;;;;;;6214712;28;20048;-75
2022/02/18 07:25:27;;;;;;;5.45;1.30;;;;;;;;;;6230851;28;20049;-76
2022/02/18 07:28:30;;;;;;;6.97;1.38;;;;;;;;;;6231221;28;20038;-75
2022/02/18 07:31:35;;;;;;;6.72;1.40;;;;;;;;;;6216017;28;20476;-75
2022/02/18 07:34:39;;;;;;;8.27;1.60;;;;;;;;;;6230928;28;20042;-75
2022/02/18 07:37:44;;;;;;;5.15;1.20;;;;;;;;;;6216009;28;20045;-75
2022/02/18 07:40:47;;;;;;;4.88;1.20;;;;;;;;;;6215080;28;20046;-76
2022/02/18 07:43:53;;;;;;;6.20;1.20;;;;;;;;;;6216064;28;20046;-75
2022/02/18 07:46:56;;;;;;;3.08;1.00;;;;;;;;;;6230939;28;20045;-75
2022/02/18 07:50:21;;;;;;;5.47;1.08;;;;;;;;;;6230940;28;20062;-76
2022/02/18 07:53:24;;;;;;;7.60;1.30;;;;;;;;;;6231559;28;20038;-77
2022/02/18 07:56:30;;;;;;;4.93;1.25;;;;;;;;;;6231084;28;20151;-76
2022/02/18 07:59:36;;;;;;;3.22;1.00;;;;;;;;;;6236090;28;20083;-75
2022/02/18 08:02:40;;;;;;;11.23;1.70;;;;;;;;;;6235921;28;20136;-75
2022/02/18 08:05:45;;;;;;;8.98;2.15;;;;;;;;;;6235591;28;20527;-76
2022/02/18 08:08:49;;;;;;;6.72;1.10;;;;;;;;;;6235063;28;20049;-74
2022/02/18 08:11:52;;;;;;;4.93;1.65;;;;;;;;;;6235399;28;20049;-74
2022/02/18 08:14:56;;;;;;;5.35;1.30;;;;;;;;;;6220245;28;20049;-75
2022/02/18 08:17:59;;;;;;;6.25;1.10;;;;;;;;;;6219932;28;20049;-74
2022/02/18 08:21:04;;;;;;;7.38;1.83;;;;;;;;;;6234969;28;20065;-74
2022/02/18 08:24:07;;;;;;;6.78;1.40;;;;;;;;;;6235704;28;20491;-76
2022/02/18 08:27:13;;;;;;;7.07;1.02;;;;;;;;;;6234463;28;20069;-76
2022/02/18 08:30:16;;;;;;;6.82;1.38;;;;;;;;;;6234614;28;20492;-76
2022/02/18 08:33:20;;;;;;;4.63;1.58;;;;;;;;;;6234823;28;20050;-74
2022/02/18 08:36:24;;;;;;;7.00;1.73;;;;;;;;;;6218435;28;20495;-75
2022/02/18 08:39:29;;;;;;;8.43;1.55;;;;;;;;;;6234455;28;20045;-75
2022/02/18 08:42:33;;;;;;;5.20;1.20;;;;;;;;;;6218149;28;20042;-76
2022/02/18 08:45:38;;;;;;;8.27;2.03;;;;;;;;;;6235065;28;20100;-77
2022/02/18 08:48:41;;;;;;;3.20;1.17;;;;;;;;;;6234171;28;20042;-76
2022/02/18 08:51:46;;;;;;;9.38;1.20;;;;;;;;;;6234214;28;20067;-76
2022/02/18 08:54:50;;;;;;;7.55;1.42;;;;;;;;;;6218396;28;20096;-76
2022/02/18 08:57:53;;;;;;;3.85;1.15;;;;;;;;;;6217615;28;20042;-76
2022/02/18 09:00:56;;;;;;;4.43;1.30;;;;;;;;;;6234445;28;20519;-76
2022/02/18 09:04:00;;;;;;;5.05;1.20;;;;;;;;;;6234372;28;20575;-77
2022/02/18 09:07:05;;;;;;;6.72;1.20;;;;;;;;;;6234288;28;20045;-77
2022/02/18 09:10:08;;;;;;;5.55;1.95;;;;;;;;;;6216700;28;20037;-76
2022/02/18 09:13:12;;;;;;;7.60;1.50;;;;;;;;;;6233979;28;20042;-76
2022/02/18 09:16:15;;;;;;;6.05;1.63;;;;;;;;;;6234237;28;20046;-75
2022/02/18 09:19:32;;;;;;;8.38;1.88;;;;;;;;;;6234012;28;20042;-75
2022/02/18 09:22:38;;;;;;;7.53;1.40;;;;;;;;;;6233714;28;20053;-74
2022/02/18 09:25:41;;;;;;;6.75;1.45;;;;;;;;;;6234038;28;20287;-74
2022/02/18 09:28:45;;;;;;;5.95;1.60;;;;;;;;;;6218513;28;20037;-75
2022/02/18 09:31:48;;;;;;;7.45;1.65;;;;;;;;;;6218343;28;20150;-75
2022/02/18 09:34:56;;;;;;;9.65;1.60;;;;;;;;;;6233404;28;20609;-75
2022/02/18 09:38:00;;;;;;;8.48;1.63;;;;;;;;;;6233791;28;20096;-73
2022/02/18 09:41:06;;;;;;;5.15;1.95;;;;;;;;;;6232793;28;20407;-75
2022/02/18 09:44:12;;;;;;;7.32;1.60;;;;;;;;;;6232889;28;20050;-76
2022/02/18 09:47:18;;;;;;;7.90;2.25;;;;;;;;;;6218659;28;20052;-75
2022/02/18 09:50:21;;;;;;;8.55;1.50;;;;;;;;;;6217841;28;20057;-76
2022/02/18 09:53:47;;;;;;;9.20;1.67;;;;;;;;;;6232746;28;20480;-75
2022/02/18 09:56:50;;;;;;;3.53;1.37;;;;;;;;;;6232746;28;20045;-74
2022/02/18 09:59:54;;;;;;;5.05;1.42;;;;;;;;;;6233275;28;20291;-75
2022/02/18 10:02:57;;;;;;;6.20;1.50;;;;;;;;;;6232418;28;20041;-74
2022/02/18 10:06:00;;;;;;;5.72;1.60;;;;;;;;;;6232500;28;20045;-74
2022/02/18 10:09:05;;;;;;;8.15;2.65;;;;;;;;;;6233278;28;20124;-75
2022/02/18 10:12:34;;;;;;;6.22;1.80;;;;;;;;;;6232687;28;20053;-74
2022/02/18 10:15:44;;;;;;;3.70;1.20;;;;;;;;;;6216440;28;20619;-75
2022/02/18 10:18:49;;;;;;;5.63;1.60;;;;;;;;;;6232135;28;20049;-74
2022/02/18 10:22:01;;;;;;;9.15;2.03;;;;;;;;;;6232224;28;20053;-74
2022/02/18 10:25:08;;;;;;;4.30;1.30;;;;;;;;;;6217068;28;20052;-74
2022/02/18 10:28:13;;;;;;;6.85;1.67;;;;;;;;;;6232094;28;20049;-74
2022/02/18 10:31:18;;;;;;;4.65;1.73;;;;;;;;;;6232282;28;20041;-73
2022/02/18 10:34:21;;;;;;;5.10;1.60;;;;;;;;;;6232461;28;20492;-74
2022/02/18 10:37:30;;;;;;;4.57;1.30;;;;;;;;;;6231618;28;20061;-74
2022/02/18 10:40:41;;;;;;;5.85;1.30;;;;;;;;;;6231798;28;20500;-74
2022/02/18 10:43:46;;;;;;;7.70;1.42;;;;;;;;;;6217249;28;20507;-74
2022/02/18 10:46:55;;;;;;;6.25;2.03;;;;;;;;;;6231890;28;20381;-74
2022/02/18 10:49:59;;;;;;;4.75;1.17;;;;;;;;;;6231447;28;20103;-74
2022/02/18 10:53:09;;;;;;;5.43;1.73;;;;;;;;;;6215181;28;20499;-74
2022/02/18 10:56:15;;;;;;;8.57;1.98;;;;;;;;;;6232265;28;20056;-74
2022/02/18 10:59:18;;;;;;;;;;;;;;;;;;6232251;28;20042;-76
2022/02/18 11:02:37;;;;;;;3.83;1.33;;;;;;;;;;6215302;28;19928;-75
2022/02/18 11:05:41;;;;;;;10.93;1.80;;;;;;;;;;6232003;28;20190;-75
2022/02/18 11:09:03;;;;;;;8.77;1.95;;;;;;;;;;6231686;28;20042;-74
2022/02/18 11:12:09;;;;;;;7.30;1.83;;;;;;;;;;6214776;28;20046;-74
2022/02/18 11:15:13;;;;;;;9.98;1.80;;;;;;;;;;6231434;28;20057;-73
2022/02/18 11:18:18;;;;;;;10.68;1.95;;;;;;;;;;6231571;28;20046;-75
2022/02/18 11:21:22;;;;;;;6.70;1.80;;;;;;;;;;6231250;28;20049;-74
2022/02/18 11:24:27;;;;;;;8.95;1.70;;;;;;;;;;6215054;28;20054;-74
2022/02/18 11:27:32;;;;;;;7.85;1.90;;;;;;;;;;6231347;28;20038;-74
2022/02/18 11:30:39;;;;;;;7.72;1.80;;;;;;;;;;6231766;28;20082;-74
2022/02/18 11:33:50;;;;;;;6.60;2.00;;;;;;;;;;6235909;28;20056;-73
2022/02/18 11:37:03;;;;;;;9.25;2.38;;;;;;;;;;6236563;28;20176;-74
2022/02/18 11:40:25;;;;;;;3.88;1.70;;;;;;;;;;6236032;28;20516;-74
2022/02/18 11:43:33;;;;;;;9.30;2.60;;;;;;;;;;6235965;28;20046;-75
2022/02/18 11:46:39;;;;;;;8.95;2.10;;;;;;;;;;6219052;28;20488;-74
2022/02/18 11:49:46;;;;;;;7.97;2.22;;;;;;;;;;6220777;28;20064;-74
2022/02/18 11:52:50;;;;;;;9.00;2.17;;;;;;;;;;6236721;28;20382;-74
2022/02/18 11:55:56;;;;;;;8.35;2.30;;;;;;;;;;6235272;28;20049;-73
2022/02/18 11:59:02;;;;;;;11.02;2.55;;;;;;;;;;6235497;28;20050;-73
2022/02/18 12:02:09;;;;;;;7.43;1.83;;;;;;;;;;6235629;28;20061;-74
2022/02/18 12:05:14;;;;;;;8.18;1.80;;;;;;;;;;6235818;28;20096;-74
2022/02/18 12:08:27;;;;;;;8.10;2.20;;;;;;;;;;6234874;28;20038;-73
2022/02/18 12:11:43;;;;;;;6.65;2.10;;;;;;;;;;6220161;28;20053;-74
2022/02/18 12:14:55;;;;;;;10.13;2.15;;;;;;;;;;6236063;28;20050;-75
2022/02/18 12:18:03;;;;;;;8.20;2.35;;;;;;;;;;6234965;28;20065;-74
2022/02/18 12:21:09;;;;;;;6.60;2.33;;;;;;;;;;6234959;28;20069;-74
2022/02/18 12:24:31;;;;;;;8.40;2.42;;;;;;;;;;6235043;28;20518;-74
2022/02/18 12:27:38;;;;;;;5.20;1.90;;;;;;;;;;6235672;28;20076;-74
2022/02/18 12:30:55;;;;;;;10.15;2.88;;;;;;;;;;6234435;28;20101;-74
2022/02/18 12:33:58;;;;;;;7.95;2.35;;;;;;;;;;6218355;28;20052;-74
2022/02/18 12:37:04;;;;;;;6.88;2.05;;;;;;;;;;6234757;28;20125;-75
2022/02/18 12:40:19;;;;;;;9.32;2.30;;;;;;;;;;6220232;28;20052;-73
2022/02/18 12:43:23;;;;;;;7.05;2.25;;;;;;;;;;6233317;28;20499;-74
2022/02/18 12:46:27;;;;;;;9.15;2.15;;;;;;;;;;6234381;28;20049;-74
2022/02/18 12:49:39;;;;;;;9.45;2.58;;;;;;;;;;6234943;28;20046;-74
2022/02/18 12:52:44;;;;;;;10.85;2.83;;;;;;;;;;6234344;28;20438;-74
2022/02/18 12:55:47;;;;;;;9.13;2.38;;;;;;;;;;6234141;28;20042;-73
2022/02/18 12:58:52;;;;;;;10.00;2.33;;;;;;;;;;6234275;28;20041;-74
2022/02/18 13:01:56;;;;;;;9.38;2.70;;;;;;;;;;6219459;28;20049;-74
2022/02/18 13:05:03;;;;;;;7.65;2.33;;;;;;;;;;6233787;28;20141;-74
2022/02/18 13:08:16;;;;;;;10.48;2.70;;;;;;;;;;6234162;28;20200;-74
2022/02/18 13:11:22;;;;;;;8.25;2.40;;;;;;;;;;6234437;28;20053;-74
2022/02/18 13:14:26;;;;;;;6.47;2.30;;;;;;;;;;6233584;28;20046;-74
2022/02/18 13:17:31;;;;;;;8.07;3.03;;;;;;;;;;6233917;28;20050;-75
2022/02/18 13:20:34;;;;;;;;;;;;;;;;;;6234221;28;20054;-75
2022/02/18 13:23:37;;;;;;;8.63;3.00;;;;;;;;;;6217343;28;20024;-74
2022/02/18 13:26:41;;;;;;;6.40;2.67;;;;;;;;;;6233282;28;20049;-76
2022/02/18 13:29:49;;;;;;;6.15;3.08;;;;;;;;;;6233731;28;20042;-75
2022/02/18 13:33:00;;;;;;;8.32;3.55;;;;;;;;;;6233909;28;20045;-75
2022/02/18 13:36:06;;;;;;;6.32;3.10;;;;;;;;;;6233282;28;20511;-74
2022/02/18 13:39:14;;;;;;;6.47;2.73;;;;;;;;;;6233159;28;20049;-74
2022/02/18 13:42:17;;;;;;;6.47;3.15;;;;;;;;;;6233280;28;20053;-74
2022/02/18 13:45:21;;;;;;;6.28;3.10;;;;;;;;;;6233436;28;20049;-74
2022/02/18 13:48:25;;;;;;;8.88;3.40;;;;;;;;;;6232523;28;20053;-74
2022/02/18 13:51:30;;;;;;;7.65;3.10;;;;;;;;;;6233081;28;20125;-75
2022/02/18 13:54:34;;;;;;;5.03;2.70;;;;;;;;;;6232631;28;20053;-74
2022/02/18 13:57:38;;;;;;;6.00;2.50;;;;;;;;;;6216029;28;20053;-74
2022/02/18 14:00:43;;;;;;;6.85;2.63;;;;;;;;;;6217573;28;20054;-75
2022/02/18 14:03:58;;;;;;;6.85;2.60;;;;;;;;;;6232842;28;20050;-75
2022/02/18 14:07:06;;;;;;;5.68;2.67;;;;;;;;;;6232771;28;20057;-76
2022/02/18 14:10:17;;;;;;;5.93;2.65;;;;;;;;;;6231899;28;20049;-75
2022/02/18 14:13:20;;;;;;;6.20;2.55;;;;;;;;;;6232625;28;20131;-75
2022/02/18 14:16:28;;;;;;;6.00;2.55;;;;;;;;;;6233350;28;20053;-75
2022/02/18 14:19:54;;;;;;;7.18;2.70;;;;;;;;;;6232396;28;20049;-75
2022/02/18 14:22:58;;;;;;;7.43;2.78;;;;;;;;;;6231746;28;20049;-75
2022/02/18 14:26:11;;;;;;;7.20;2.38;;;;;;;;;;6232314;28;20507;-75
2022/02/18 14:29:14;;;;;;;8.80;2.72;;;;;;;;;;6232774;28;20057;-75
2022/02/18 14:32:24;;;;;;;8.07;2.75;;;;;;;;;;6215148;28;20050;-76
2022/02/18 14:35:38;;;;;;;5.07;2.67;;;;;;;;;;6215732;28;20136;-75
2022/02/18 14:38:51;;;;;;;6.43;2.58;;;;;;;;;;6216007;28;20514;-76
2022/02/18 14:42:00;;;;;;;5.30;2.70;;;;;;;;;;6232198;28;20613;-75
2022/02/18 14:45:05;;;;;;;5.90;2.58;;;;;;;;;;6231437;28;20050;-75
2022/02/18 14:48:10;;;;;;;6.22;2.45;;;;;;;;;;6215280;28;20045;-74
2022/02/18 14:51:16;;;;;;;4.38;2.50;;;;;;;;;;6232139;28;20073;-75
2022/02/18 14:54:20;;;;;;;7.45;2.97;;;;;;;;;;6231511;28;20084;-75
2022/02/18 14:57:23;;;;;;;7.45;2.80;;;;;;;;;;6231546;28;20148;-75
2022/02/18 15:00:28;;;;;;;7.65;2.83;;;;;;;;;;6231861;28;20441;-75
2022/02/18 15:03:32;;;;;;;;;;;;;;;;;;6216161;28;20053;-75
2022/02/18 15:06:37;;;;;;;6.53;2.83;;;;;;;;;;6214405;28;19933;-74
2022/02/18 15:09:40;;;;;;;8.07;2.87;;;;;;;;;;6231543;28;20180;-74
2022/02/18 15:12:45;;;;;;;8.10;2.80;;;;;;;;;;6215790;28;20317;-75
2022/02/18 15:15:48;;;;;;;10.05;3.00;;;;;;;;;;6231359;28;20045;-74
2022/02/18 15:18:52;;;;;;;6.82;2.75;;;;;;;;;;6231326;28;20436;-75
2022/02/18 15:21:57;;;;;;;;;;;;;;;;;;6232401;28;20046;-75
2022/02/18 15:25:02;;;;;;;5.97;2.33;;;;;;;;;;6216115;28;20402;-75
2022/02/18 15:28:08;;;;;;;7.82;2.72;;;;;;;;;;6230386;28;20500;-74
2022/02/18 15:34:40;;;;;;;4.82;2.70;;;;;;;;;;6231950;28;20534;-74
2022/02/18 15:37:43;;;;;;;4.70;2.60;;;;;;;;;;6230712;28;20471;-74
2022/02/18 15:44:09;;;;;;;5.70;2.50;;;;;;;;;;6216073;28;20780;-75
2022/02/18 15:47:14;;;;;;;6.85;2.70;;;;;;;;;;6216420;28;20046;-74
2022/02/18 15:50:19;;;;;;;6.57;2.80;;;;;;;;;;6230234;28;20057;-74
2022/02/18 15:53:23;;;;;;;5.63;2.42;;;;;;;;;;6216120;28;20056;-74
2022/02/18 15:56:28;;;;;;;4.90;2.22;;;;;;;;;;6215259;28;20061;-74
2022/02/18 15:59:31;;;;;;;6.97;2.70;;;;;;;;;;6230367;28;20069;-73
2022/02/18 16:02:35;;;;;;;6.70;2.63;;;;;;;;;;6230756;28;20088;-73
2022/02/18 16:05:38;;;;;;;5.53;2.50;;;;;;;;;;6230849;28;20120;-73
2022/02/18 16:08:43;;;;;;;7.20;2.67;;;;;;;;;;6231228;28;20042;-73
2022/02/18 16:11:50;;;;;;;10.23;2.60;;;;;;;;;;6214589;28;20146;-73
2022/02/18 16:14:53;;;;;;;9.75;2.53;;;;;;;;;;6231629;28;20046;-73
2022/02/18 16:17:56;;;;;;;3.97;2.22;;;;;;;;;;6232087;28;20042;-73
2022/02/18 16:21:00;;;;;;;7.03;2.92;;;;;;;;;;6234710;28;20397;-73
2022/02/18 16:24:04;;;;;;;6.45;2.63;;;;;;;;;;6235211;28;20052;-73
2022/02/18 16:27:10;;;;;;;8.02;2.40;;;;;;;;;;6235204;28;20042;-74
2022/02/18 16:30:14;;;;;;;5.20;2.53;;;;;;;;;;6234937;28;20049;-74
2022/02/18 16:33:17;;;;;;;9.85;3.00;;;;;;;;;;6234344;28;20053;-74
2022/02/18 16:36:21;;;;;;;10.32;3.85;;;;;;;;;;6218369;28;20057;-74
2022/02/18 16:39:26;;;;;;;8.27;2.95;;;;;;;;;;6235086;28;20053;-73
2022/02/18 16:42:33;;;;;;;6.33;2.50;;;;;;;;;;6234054;28;20108;-73
2022/02/18 16:45:36;;;;;;;6.53;2.65;;;;;;;;;;6234431;28;20053;-73
2022/02/18 16:48:39;;;;;;;8.90;3.30;;;;;;;;;;6234778;28;20137;-73
2022/02/18 16:51:45;;;;;;;7.28;2.85;;;;;;;;;;6218939;28;20103;-73
2022/02/18 16:54:48;;;;;;;5.78;2.70;;;;;;;;;;6234155;28;20049;-72
2022/02/18 16:57:54;;;;;;;8.20;3.00;;;;;;;;;;6234488;28;20461;-75
2022/02/18 17:00:57;;;;;;;8.00;3.47;;;;;;;;;;6234612;28;20057;-74
2022/02/18 17:04:04;;;;;;;7.60;3.10;;;;;;;;;;6233581;28;20037;-72
2022/02/18 17:07:07;;;;;;;10.40;3.83;;;;;;;;;;6233935;28;20504;-73
2022/02/18 17:10:11;;;;;;;12.45;3.42;;;;;;;;;;6218199;28;20053;-73
2022/02/18 17:13:18;;;;;;;11.38;3.60;;;;;;;;;;6218201;28;20038;-75
2022/02/18 17:16:22;;;;;;;8.35;3.28;;;;;;;;;;6233856;28;20111;-74
2022/02/18 17:19:31;;;;;;;9.98;3.33;;;;;;;;;;6233910;28;20042;-75
2022/02/18 17:22:36;;;;;;;7.93;3.15;;;;;;;;;;6234163;28;20388;-76
2022/02/18 17:25:39;;;;;;;6.93;3.15;;;;;;;;;;6217419;28;20045;-75
2022/02/18 17:28:45;;;;;;;5.93;3.03;;;;;;;;;;6233063;28;20488;-74
2022/02/18 17:31:48;;;;;;;8.93;3.75;;;;;;;;;;6234581;28;20499;-73
2022/02/18 17:34:51;;;;;;;7.13;2.90;;;;;;;;;;6232766;28;20041;-74
2022/02/18 17:37:55;;;;;;;6.88;3.10;;;;;;;;;;6233364;28;20404;-73
2022/02/18 17:40:58;;;;;;;8.38;3.20;;;;;;;;;;6217386;28;20050;-73
2022/02/18 17:44:03;;;;;;;8.48;3.08;;;;;;;;;;6233138;28;20045;-74
2022/02/18 17:47:09;;;;;;;9.38;3.53;;;;;;;;;;6216486;28;20497;-74
2022/02/18 17:50:12;;;;;;;;;;;;;;;;;;6217262;28;20291;-75
2022/02/18 17:53:15;;;;;;;9.02;3.72;;;;;;;;;;6217133;28;19921;-74
2022/02/18 17:56:20;;;;;;;12.27;4.05;;;;;;;;;;6232398;28;20057;-75
2022/02/18 17:59:28;;;;;;;10.85;3.40;;;;;;;;;;6233188;28;20184;-74
2022/02/18 18:02:31;;;;;;;12.03;4.03;;;;;;;;;;6217155;28;20049;-76
2022/02/18 18:05:34;;;;;;;9.98;3.92;;;;;;;;;;6232375;28;20042;-75
2022/02/18 18:08:37;;;;;;;9.85;3.72;;;;;;;;;;6232448;28;20054;-74
2022/02/18 18:11:41;;;;;;;10.45;3.58;;;;;;;;;;6232689;28;20045;-75
2022/02/18 18:14:46;;;;;;;8.93;3.03;;;;;;;;;;6232951;28;20041;-75
2022/02/18 18:17:49;;;;;;;11.45;3.53;;;;;;;;;;6232821;28;20053;-74
2022/02/18 18:20:52;;;;;;;9.00;3.15;;;;;;;;;;6232711;28;20119;-73
2022/02/18 18:23:56;;;;;;;6.07;2.80;;;;;;;;;;6232890;28;20092;-75
2022/02/18 18:26:59;;;;;;;6.10;2.78;;;;;;;;;;6231493;28;20046;-74
2022/02/18 18:30:06;;;;;;;8.35;3.03;;;;;;;;;;6232049;28;20385;-75
2022/02/18 18:33:09;;;;;;;11.48;3.72;;;;;;;;;;6232445;28;20050;-74
2022/02/18 18:36:12;;;;;;;6.90;3.17;;;;;;;;;;6232190;28;20038;-74
2022/02/18 18:39:15;;;;;;;9.27;3.35;;;;;;;;;;6231731;28;20179;-75
2022/02/18 18:42:19;;;;;;;10.15;3.80;;;;;;;;;;6231673;28;20042;-74